Time;durP1;ratioP1;P1;durP2;ratioP2;P2;SDS_P1;SDS_P2;PMS_P1;PMS_P2;Temp;Humidity;BMP_temperature;BMP_pressure;BME280_temperature;BME280_humidity;BME280_pressure;Samples;Min_cycle;Max_cycle;Signal;HPM_P1;HPM_P2
2021/03/29 00:00:30;;;;;;;25.88;17.15;;;;;;;6.13;97.79;100581.25;1763211;79;21139;-50
2021/03/29 00:02:58;;;;;;;26.20;16.80;;;;;;;6.12;97.66;100571.42;1762875;79;21074;-50
2021/03/29 00:09:04;;;;;;;23.75;15.60;;;;;;;6.17;97.55;100577.58;1747564;79;21730;-50
2021/03/29 00:11:34;;;;;;;24.57;16.62;;;;;;;6.10;97.36;100582.63;1734124;82;20979;-50
2021/03/29 00:14:02;;;;;;;26.12;15.72;;;;;;;6.09;97.30;100579.53;1663278;82;22288;-50
2021/03/29 00:16:31;;;;;;;24.77;15.48;;;;;;;6.09;97.21;100581.33;1685407;83;21625;-50
2021/03/29 00:19:00;;;;;;;25.70;15.72;;;;;;;6.04;97.28;100576.94;1684402;83;20997;-50
2021/03/29 00:21:29;;;;;;;22.02;13.98;;;;;;;6.04;97.26;100581.41;1700281;82;21022;-50
2021/03/29 00:23:59;;;;;;;21.93;15.28;;;;;;;6.05;97.27;100593.88;1693577;82;21404;-50
2021/03/29 00:26:27;;;;;;;23.25;15.53;;;;;;;6.06;97.15;100605.02;1685733;83;21441;-51
2021/03/29 00:28:56;;;;;;;22.25;15.15;;;;;;;6.06;97.04;100598.32;1690770;82;21756;-51
2021/03/29 00:31:25;;;;;;;22.77;15.43;;;;;;;6.06;96.93;100598.32;1693359;83;21010;-49
2021/03/29 00:33:53;;;;;;;21.97;15.72;;;;;;;6.07;96.90;100601.88;1695180;83;21022;-51
2021/03/29 00:36:23;;;;;;;22.73;14.95;;;;;;;6.05;96.96;100615.30;1696067;82;21014;-50
2021/03/29 00:38:59;;;;;;;23.22;16.17;;;;;;;6.08;97.01;100603.22;1823828;77;23113;-50
2021/03/29 00:41:28;;;;;;;22.40;14.87;;;;;;;6.02;97.04;100618.06;1775800;78;20994;-52
2021/03/29 00:43:58;;;;;;;22.70;14.15;;;;;;;6.01;97.11;100606.89;1756045;80;22296;-50
2021/03/29 00:46:26;;;;;;;23.22;14.50;;;;;;;6.01;97.05;100607.77;1749664;78;21377;-50
2021/03/29 00:48:55;;;;;;;22.17;14.47;;;;;;;6.03;97.05;100601.08;1748134;78;21620;-50
2021/03/29 00:51:29;;;;;;;23.77;15.70;;;;;;;6.02;97.00;100607.34;1749038;80;20989;-49
2021/03/29 00:54:05;;;;;;;21.85;14.68;;;;;;;6.08;96.91;100620.62;1811230;78;22847;-50
2021/03/29 00:56:35;;;;;;;19.10;12.78;;;;;;;6.02;96.78;100604.67;1815169;77;21123;-49
2021/03/29 00:59:04;;;;;;;19.20;13.00;;;;;;;6.01;96.80;100602.87;1776494;79;22100;-50
2021/03/29 01:01:42;;;;;;;20.27;14.50;;;;;;;5.98;96.88;100613.20;1778007;79;21530;-50
2021/03/29 01:04:10;;;;;;;21.60;13.93;;;;;;;5.97;96.86;100614.58;1780668;77;20991;-50
2021/03/29 01:06:45;;;;;;;21.23;14.00;;;;;;;5.97;97.01;100606.55;1778288;77;20986;-51
2021/03/29 01:09:19;;;;;;;20.08;13.58;;;;;;;5.96;96.92;100614.12;1784871;79;20965;-50
2021/03/29 01:11:56;;;;;;;20.90;14.65;;;;;;;5.96;96.93;100616.80;1779600;77;22273;-50
2021/03/29 01:14:39;;;;;;;22.82;14.03;;;;;;;5.94;96.93;100621.31;1778455;77;20987;-51
2021/03/29 01:17:32;;;;;;;22.37;15.03;;;;;;;5.93;97.02;100603.48;1778338;79;21576;-50
2021/03/29 01:20:06;;;;;;;27.93;14.03;;;;;;;5.92;97.06;100622.68;1775895;77;20971;-51
2021/03/29 01:22:38;;;;;;;21.77;14.03;;;;;;;5.92;97.03;100621.80;1776582;79;21371;-50
2021/03/29 01:25:25;;;;;;;20.02;13.78;;;;;;;5.95;97.07;100635.11;1815669;76;22858;-50
2021/03/29 01:28:00;;;;;;;18.20;12.45;;;;;;;5.90;97.14;100635.61;1760766;78;21107;-51
2021/03/29 01:30:31;;;;;;;21.82;13.65;;;;;;;5.89;97.27;100633.85;1758395;79;21212;-50
2021/03/29 01:33:00;;;;;;;21.20;14.33;;;;;;;5.87;97.31;100637.02;1767380;79;20962;-51
2021/03/29 01:35:31;;;;;;;23.57;14.43;;;;;;;5.86;97.42;100636.56;1757741;79;21021;-50
2021/03/29 01:37:59;;;;;;;21.00;13.88;;;;;;;5.84;97.65;100639.73;1760517;79;21648;-50
2021/03/29 01:40:28;;;;;;;20.65;13.13;;;;;;;5.83;97.73;100632.63;1757206;79;21564;-51
2021/03/29 01:42:56;;;;;;;19.10;11.90;;;;;;;5.82;97.88;100634.88;1756325;79;21207;-49
2021/03/29 01:45:30;;;;;;;20.15;13.68;;;;;;;5.82;97.89;100633.54;1756137;79;21001;-50
2021/03/29 01:47:58;;;;;;;18.80;13.20;;;;;;;5.79;97.89;100634.00;1756610;79;21001;-49
2021/03/29 01:50:28;;;;;;;20.52;12.55;;;;;;;5.77;98.12;100638.50;1757745;79;21001;-50
2021/03/29 01:52:56;;;;;;;19.32;12.85;;;;;;;5.77;98.23;100647.88;1756995;79;21513;-50
2021/03/29 01:55:25;;;;;;;20.27;13.62;;;;;;;5.76;98.36;100635.41;1759937;79;21682;-49
2021/03/29 01:57:54;;;;;;;20.35;13.95;;;;;;;5.76;98.15;100646.11;1756934;79;21602;-50
2021/03/29 02:00:28;;;;;;;19.67;13.95;;;;;;;5.79;98.20;100644.70;1757854;79;21601;-51
2021/03/29 02:02:56;;;;;;;19.15;12.90;;;;;;;5.78;98.14;100636.25;1762497;79;21526;-51
2021/03/29 02:05:24;;;;;;;19.40;13.25;;;;;;;5.76;98.32;100643.44;1727653;80;21108;-52
2021/03/29 02:07:54;;;;;;;22.10;13.88;;;;;;;5.73;98.43;100646.14;1757128;78;22235;-50
2021/03/29 02:10:25;;;;;;;23.57;14.75;;;;;;;5.73;98.54;100653.30;1756474;79;21151;-51
2021/03/29 02:12:53;;;;;;;22.00;14.80;;;;;;;5.74;98.66;100659.95;1761288;79;21026;-50
2021/03/29 02:15:25;;;;;;;21.45;13.98;;;;;;;5.74;98.59;100671.99;1760548;78;20985;-57
2021/03/29 02:18:08;;;;;;;18.82;12.80;;;;;;;5.79;98.50;100656.75;1792925;76;22851;-58
2021/03/29 02:20:37;;;;;;;22.95;13.90;;;;;;;5.75;98.54;100652.38;1758444;79;21098;-58
2021/03/29 02:23:06;;;;;;;19.75;13.70;;;;;;;5.75;98.52;100660.83;1758246;80;22079;-57
2021/03/29 02:25:36;;;;;;;19.32;13.28;;;;;;;5.74;98.55;100666.64;1757678;78;21025;-59
2021/03/29 02:28:05;;;;;;;19.40;13.22;;;;;;;5.73;98.59;100658.19;1756629;80;21569;-58
2021/03/29 02:30:38;;;;;;;21.07;13.98;;;;;;;5.71;98.80;100677.42;1757418;79;21580;-57
2021/03/29 02:33:06;;;;;;;24.12;14.65;;;;;;;5.71;98.72;100680.09;1760926;80;21533;-58
2021/03/29 02:35:37;;;;;;;24.52;16.23;;;;;;;5.70;98.82;100672.98;1758802;78;21373;-58
2021/03/29 02:38:08;;;;;;;24.87;15.13;;;;;;;5.71;98.93;100660.02;1756920;80;20978;-57
2021/03/29 02:40:36;;;;;;;23.85;15.58;;;;;;;5.71;98.90;100674.73;1755636;80;20997;-60
2021/03/29 02:43:04;;;;;;;26.25;15.90;;;;;;;5.70;99.02;100667.63;1755826;79;21001;-57
2021/03/29 02:45:36;;;;;;;25.72;16.35;;;;;;;5.71;99.08;100674.73;1754772;80;20977;-57
2021/03/29 02:48:15;;;;;;;24.25;15.63;;;;;;;5.78;99.01;100677.73;1890170;74;22661;-58
2021/03/29 02:50:45;;;;;;;25.10;15.38;;;;;;;5.72;99.20;100672.95;1857304;75;20969;-57
2021/03/29 02:53:22;;;;;;;23.05;13.72;;;;;;;5.70;99.27;100684.11;1823332;78;21359;-59
2021/03/29 02:55:51;;;;;;;26.12;16.82;;;;;;;5.68;99.34;100677.45;1853927;76;20938;-58
2021/03/29 02:58:23;;;;;;;23.65;15.05;;;;;;;5.68;99.52;100695.30;1853463;76;21008;-57
2021/03/29 03:00:52;;;;;;;23.60;14.87;;;;;;;5.66;99.67;100689.98;1855601;75;20989;-58
2021/03/29 03:03:21;;;;;;;24.82;13.75;;;;;;;5.62;99.85;100685.58;1852176;75;21581;-59
2021/03/29 03:05:51;;;;;;;22.73;14.90;;;;;;;5.63;99.91;100683.78;1854855;75;21200;-59
2021/03/29 03:08:20;;;;;;;20.87;13.53;;;;;;;5.64;99.91;100694.45;1854430;75;20989;-58
2021/03/29 03:10:50;;;;;;;24.30;13.65;;;;;;;5.64;99.97;100685.09;1825324;77;20993;-58
2021/03/29 03:13:18;;;;;;;21.77;13.90;;;;;;;5.63;99.98;100702.05;1854989;76;21155;-57
2021/03/29 03:15:47;;;;;;;19.37;12.18;;;;;;;5.62;100.00;100704.30;1856408;75;21120;-58
2021/03/29 03:18:14;;;;;;;23.10;14.95;;;;;;;5.60;99.99;100702.13;1853933;75;21981;-56
2021/03/29 03:20:44;;;;;;;20.30;13.35;;;;;;;5.59;100.00;100703.00;1853106;75;20998;-59
2021/03/29 03:23:16;;;;;;;24.15;13.80;;;;;;;5.56;100.00;100712.43;1854612;75;21015;-58
2021/03/29 03:25:50;;;;;;;22.32;13.68;;;;;;;5.53;100.00;100711.12;1853700;75;21115;-58
2021/03/29 03:28:21;;;;;;;21.85;13.25;;;;;;;5.52;100.00;100711.58;1854630;75;21013;-57
2021/03/29 03:30:51;;;;;;;17.80;12.45;;;;;;;5.49;100.00;100705.41;1854694;75;21391;-58
2021/03/29 03:33:22;;;;;;;22.82;13.68;;;;;;;5.47;100.00;100707.20;1855042;76;21136;-57
2021/03/29 03:35:52;;;;;;;22.27;12.65;;;;;;;5.47;100.00;100723.25;1852355;75;20950;-58
2021/03/29 03:38:32;;;;;;;21.65;13.98;;;;;;;5.48;100.00;100727.69;1855468;75;21123;-57
2021/03/29 03:41:08;;;;;;;22.87;14.05;;;;;;;5.45;100.00;100739.79;1856333;75;20977;-56
2021/03/29 03:43:39;;;;;;;21.97;12.50;;;;;;;5.44;100.00;100731.34;1856604;75;21915;-58
2021/03/29 03:46:24;;;;;;;23.47;14.43;;;;;;;5.48;100.00;100731.70;1800466;78;22712;-58
2021/03/29 03:48:56;;;;;;;18.57;11.28;;;;;;;5.42;100.00;100735.34;1774978;80;21553;-57
2021/03/29 03:51:25;;;;;;;19.10;11.88;;;;;;;5.40;100.00;100734.95;1775252;79;22271;-58
2021/03/29 03:53:54;;;;;;;19.10;12.65;;;;;;;5.37;100.00;100730.97;1774820;80;20998;-59
2021/03/29 03:56:22;;;;;;;18.62;12.63;;;;;;;5.36;100.00;100730.54;1774951;79;21014;-58
2021/03/29 03:58:51;;;;;;;19.95;12.00;;;;;;;5.37;100.00;100737.66;1774736;79;21545;-58
2021/03/29 04:01:19;;;;;;;19.60;12.53;;;;;;;5.38;100.00;100740.75;1744700;80;20982;-57
2021/03/29 04:03:48;;;;;;;23.10;12.25;;;;;;;5.34;100.00;100753.76;1775159;80;21185;-58
2021/03/29 04:06:16;;;;;;;19.87;12.45;;;;;;;5.32;100.00;100743.52;1774310;79;21156;-57
2021/03/29 04:08:46;;;;;;;19.82;13.13;;;;;;;5.29;100.00;100740.44;1774294;80;21450;-57
2021/03/29 04:11:14;;;;;;;21.77;12.25;;;;;;;5.31;100.00;100739.08;1773906;79;21111;-58
2021/03/29 04:13:42;;;;;;;19.50;12.00;;;;;;;5.30;100.00;100738.65;1775059;79;21002;-57
2021/03/29 04:16:10;;;;;;;23.15;13.98;;;;;;;5.26;100.00;100746.70;1774043;79;21372;-57
2021/03/29 04:18:40;;;;;;;19.32;12.13;;;;;;;5.24;100.00;100747.18;1773949;79;21033;-57
2021/03/29 04:21:09;;;;;;;19.25;11.68;;;;;;;5.23;100.00;100743.20;1774464;79;21760;-58
2021/03/29 04:23:37;;;;;;;19.67;12.18;;;;;;;5.24;100.00;100761.01;1774462;79;21021;-57
2021/03/29 04:26:06;;;;;;;22.87;11.63;;;;;;;5.23;100.00;100752.10;1773654;79;21124;-58
2021/03/29 04:28:34;;;;;;;20.50;11.48;;;;;;;5.24;100.00;100758.34;1774087;79;22196;-57
2021/03/29 04:31:02;;;;;;;21.68;13.30;;;;;;;5.21;100.00;100765.92;1774138;79;21005;-59
2021/03/29 04:33:30;;;;;;;21.77;13.43;;;;;;;5.19;100.00;100753.49;1773280;80;21124;-59
2021/03/29 04:35:58;;;;;;;22.90;14.50;;;;;;;5.18;100.00;100765.98;1773214;79;21676;-55
2021/03/29 04:38:26;;;;;;;22.98;13.55;;;;;;;5.17;100.00;100770.91;1773910;79;21109;-54
2021/03/29 04:40:54;;;;;;;22.48;13.48;;;;;;;5.17;100.00;100775.37;1775012;79;21195;-57
2021/03/29 04:43:23;;;;;;;28.47;15.58;;;;;;;5.15;100.00;100764.66;1773613;79;21580;-62
2021/03/29 04:45:52;;;;;;;26.93;16.48;;;;;;;5.16;100.00;100763.75;1778147;79;21547;-60
2021/03/29 04:48:20;;;;;;;29.72;17.12;;;;;;;5.19;100.00;100764.19;1779864;79;21016;-60
2021/03/29 04:50:48;;;;;;;30.00;16.93;;;;;;;5.22;100.00;100771.73;1780549;79;21652;-59
2021/03/29 04:53:16;;;;;;;26.70;16.00;;;;;;;5.25;100.00;100778.36;1779786;79;21477;-60
2021/03/29 04:55:47;;;;;;;29.40;16.40;;;;;;;5.25;100.00;100778.36;1779463;79;21026;-60
2021/03/29 04:58:15;;;;;;;29.65;16.90;;;;;;;5.28;100.00;100784.60;1780127;79;21622;-57
2021/03/29 05:00:43;;;;;;;31.73;19.20;;;;;;;5.30;100.00;100776.09;1779485;79;21206;-59
2021/03/29 05:03:12;;;;;;;33.28;19.12;;;;;;;5.30;100.00;100781.44;1776948;79;21554;-60
2021/03/29 05:05:40;;;;;;;29.52;17.35;;;;;;;5.30;100.00;100781.44;1779593;79;21868;-63
2021/03/29 05:08:08;;;;;;;31.65;19.40;;;;;;;5.32;100.00;100782.30;1777445;79;21167;-61
2021/03/29 05:10:39;;;;;;;31.17;18.65;;;;;;;5.36;100.00;100790.72;1778353;80;21191;-59
2021/03/29 05:13:06;;;;;;;34.45;19.40;;;;;;;5.35;100.00;100792.97;1779740;79;20978;-61
2021/03/29 05:15:34;;;;;;;34.92;18.45;;;;;;;5.34;100.00;100796.56;1780439;79;21065;-53
2021/03/29 05:18:03;;;;;;;36.13;19.73;;;;;;;5.32;100.00;100790.32;1780605;79;21189;-51
2021/03/29 05:20:31;;;;;;;33.18;19.30;;;;;;;5.32;100.00;100795.67;1779980;80;21292;-51
2021/03/29 05:22:59;;;;;;;31.82;19.50;;;;;;;5.36;100.00;100790.72;1780480;79;20994;-52
2021/03/29 05:25:28;;;;;;;36.25;20.97;;;;;;;5.38;100.00;100811.64;1778466;79;20994;-52
2021/03/29 05:27:56;;;;;;;34.38;19.37;;;;;;;5.40;100.00;100804.50;1779202;79;21530;-50
2021/03/29 05:30:25;;;;;;;33.58;19.65;;;;;;;5.39;100.00;100800.06;1777640;79;22530;-52
2021/03/29 05:32:53;;;;;;;41.83;21.45;;;;;;;5.38;100.00;100809.87;1779544;79;21534;-54
2021/03/29 05:35:22;;;;;;;38.17;20.70;;;;;;;5.40;100.00;100808.52;1774835;79;21984;-52
2021/03/29 05:37:50;;;;;;;33.78;20.17;;;;;;;5.40;100.00;100815.20;1778319;79;21029;-53
2021/03/29 05:40:19;;;;;;;37.55;21.62;;;;;;;5.38;100.00;100815.65;1779085;79;21115;-53
2021/03/29 05:42:48;;;;;;;39.33;21.55;;;;;;;5.37;100.00;100812.55;1779407;79;21362;-53
2021/03/29 05:45:17;;;;;;;37.42;22.25;;;;;;;5.37;100.00;100814.77;1773267;79;21157;-53
2021/03/29 05:47:45;;;;;;;35.30;20.85;;;;;;;5.39;100.00;100817.45;1741443;80;21137;-53
2021/03/29 05:50:16;;;;;;;36.73;20.65;;;;;;;5.43;100.00;100833.87;1763965;79;20986;-52
2021/03/29 05:52:45;;;;;;;42.60;21.60;;;;;;;5.41;100.00;100826.33;1763575;79;20967;-51
2021/03/29 05:55:19;;;;;;;41.20;23.83;;;;;;;5.41;100.00;100835.70;1762638;79;21447;-52
2021/03/29 06:00:41;;;;;;;41.40;25.90;;;;;;;5.42;100.00;100833.45;1762828;80;20986;-52
2021/03/29 06:03:26;;;;;;;39.70;23.47;;;;;;;5.42;100.00;100839.67;1762377;79;20942;-52
2021/03/29 06:05:58;;;;;;;37.53;22.98;;;;;;;5.45;100.00;100844.13;1761195;79;21018;-52
2021/03/29 06:08:27;;;;;;;37.30;22.30;;;;;;;5.48;100.00;100856.11;1761836;79;21201;-51
2021/03/29 06:10:59;;;;;;;40.45;21.93;;;;;;;5.49;100.00;100860.58;1763179;79;21614;-51
2021/03/29 06:13:30;;;;;;;34.35;20.40;;;;;;;5.46;100.00;100863.28;1763648;79;21587;-52
2021/03/29 06:16:10;;;;;;;39.30;22.05;;;;;;;5.43;100.00;100863.30;1763549;79;21037;-52
2021/03/29 06:18:51;;;;;;;37.17;23.18;;;;;;;5.41;100.00;100859.77;1762667;80;21030;-51
2021/03/29 06:21:19;;;;;;;38.53;23.00;;;;;;;5.41;100.00;100870.47;1762447;79;21330;-54
2021/03/29 06:23:58;;;;;;;37.35;23.65;;;;;;;5.42;100.00;100865.55;1762747;80;21603;-52
2021/03/29 06:26:35;;;;;;;36.15;22.17;;;;;;;5.50;100.00;100865.02;1806189;76;22750;-58
2021/03/29 06:29:19;;;;;;;39.35;22.62;;;;;;;5.46;100.00;100871.30;1757880;79;21005;-59
2021/03/29 06:31:47;;;;;;;42.17;23.07;;;;;;;5.48;100.00;100866.81;1760087;79;21213;-59
2021/03/29 06:34:15;;;;;;;36.50;21.42;;;;;;;5.52;100.00;100863.20;1759337;80;21054;-58
2021/03/29 06:36:44;;;;;;;38.48;22.00;;;;;;;5.56;100.00;100867.63;1709557;80;21006;-59
2021/03/29 06:39:20;;;;;;;41.83;23.25;;;;;;;5.61;100.00;100879.16;1760470;79;21032;-60
2021/03/29 06:41:55;;;;;;;44.35;23.55;;;;;;;5.62;99.59;100880.92;1767542;79;21044;-59
2021/03/29 06:44:31;;;;;;;39.98;23.27;;;;;;;5.62;99.26;100891.63;1769963;80;21663;-61
2021/03/29 06:47:14;;;;;;;38.65;23.10;;;;;;;5.62;99.27;100896.98;1756070;79;21005;-60
2021/03/29 06:49:48;;;;;;;39.73;23.05;;;;;;;5.60;99.26;100893.45;1756030;80;21023;-58
2021/03/29 06:52:30;;;;;;;32.67;21.55;;;;;;;5.60;99.20;100900.14;1758435;79;21059;-60
2021/03/29 06:55:26;;;;;;;40.17;24.57;;;;;;;5.61;99.25;100889.86;1758210;79;20978;-60
2021/03/29 06:58:05;;;;;;;39.85;21.93;;;;;;;5.64;99.32;100892.94;1762933;79;21380;-59
2021/03/29 07:00:38;;;;;;;37.70;22.60;;;;;;;5.65;99.42;100894.28;1760119;79;21139;-59
2021/03/29 07:03:08;;;;;;;42.90;24.18;;;;;;;5.70;99.31;100887.09;1759237;79;21001;-59
2021/03/29 07:05:37;;;;;;;37.75;21.75;;;;;;;5.75;99.18;100901.30;1757504;79;21198;-60
2021/03/29 07:08:07;;;;;;;39.20;22.65;;;;;;;5.77;98.73;100898.59;1762254;79;21094;-59
2021/03/29 07:10:37;;;;;;;38.92;21.50;;;;;;;5.79;98.65;100904.80;1766143;79;22742;-61
2021/03/29 07:13:09;;;;;;;38.25;23.32;;;;;;;5.82;98.46;100909.25;1758590;79;21648;-56
2021/03/29 07:15:38;;;;;;;;;;;;;;;5.85;98.39;100911.87;1733942;79;21138;-57
2021/03/29 07:18:07;;;;;;;34.92;21.42;;;;;;;5.83;97.81;100911.90;1760730;79;20567;-56
2021/03/29 07:20:36;;;;;;;36.58;21.60;;;;;;;5.84;97.97;100924.83;1759687;79;21514;-56
2021/03/29 07:23:04;;;;;;;38.83;23.57;;;;;;;5.87;97.80;100916.77;1758647;78;21203;-57
2021/03/29 07:25:36;;;;;;;40.28;23.67;;;;;;;5.90;97.76;100916.72;1765795;79;21537;-51
2021/03/29 07:28:10;;;;;;;40.90;23.20;;;;;;;5.93;97.62;100928.78;1778171;78;21687;-57
2021/03/29 07:30:49;;;;;;;38.38;23.18;;;;;;;5.93;97.23;100922.08;1773022;78;20937;-56
2021/03/29 07:33:19;;;;;;;42.70;23.50;;;;;;;5.92;97.04;100923.00;1776081;78;21038;-57
2021/03/29 07:35:52;;;;;;;38.58;24.07;;;;;;;5.89;96.90;100927.00;1772769;78;21579;-57
2021/03/29 07:38:24;;;;;;;42.75;24.65;;;;;;;5.92;97.02;100933.25;1737054;80;21528;-56
2021/03/29 07:40:58;;;;;;;36.98;22.42;;;;;;;5.98;96.89;100937.64;1735730;80;21115;-54
2021/03/29 07:46:05;;;;;;;37.55;25.35;;;;;;;6.05;96.64;100946.02;1885986;72;22643;-55
2021/03/29 07:48:46;;;;;;;38.80;24.82;;;;;;;6.01;96.54;100945.61;1856325;74;20933;-56
2021/03/29 07:51:16;;;;;;;40.40;24.00;;;;;;;6.05;96.63;100951.38;1859438;74;21353;-58
2021/03/29 07:53:52;;;;;;;40.15;24.50;;;;;;;6.07;96.29;100950.89;1854413;74;21532;-57
2021/03/29 07:56:38;;;;;;;39.48;24.40;;;;;;;6.07;96.20;100949.55;1858195;74;20995;-56
2021/03/29 07:59:06;;;;;;;42.08;25.30;;;;;;;6.07;96.15;100954.02;1856267;75;20933;-56
2021/03/29 08:01:59;;;;;;;41.20;25.32;;;;;;;6.10;96.10;100960.24;1857371;76;21095;-57
2021/03/29 08:05:05;;;;;;;39.92;23.50;;;;;;;6.22;96.04;100950.70;1808756;76;22708;-57
2021/03/29 08:07:48;;;;;;;38.10;22.95;;;;;;;6.27;95.93;100956.88;1757953;79;20958;-57
2021/03/29 08:10:19;;;;;;;42.95;21.70;;;;;;;6.28;95.25;100960.02;1764490;79;21485;-56
2021/03/29 08:13:00;;;;;;;37.25;22.67;;;;;;;6.25;95.22;100961.39;1754077;80;21012;-56
2021/03/29 08:16:04;;;;;;;38.90;22.73;;;;;;;6.21;95.29;100967.69;1757069;79;20973;-57
2021/03/29 08:19:17;;;;;;;37.48;21.90;;;;;;;6.23;95.41;100956.94;1752732;80;20977;-56
2021/03/29 08:22:03;;;;;;;39.80;22.42;;;;;;;6.24;95.26;100971.67;1752185;79;21040;-59
2021/03/29 08:24:43;;;;;;;37.20;22.25;;;;;;;6.25;95.37;100974.78;1755527;79;21227;-57
2021/03/29 08:27:20;;;;;;;40.45;23.05;;;;;;;6.27;95.37;100971.62;1762199;79;20954;-56
2021/03/29 08:29:53;;;;;;;36.73;21.15;;;;;;;6.28;95.47;100972.08;1753193;79;21544;-57
2021/03/29 08:32:33;;;;;;;38.25;21.57;;;;;;;6.35;95.39;100981.38;1759243;79;21525;-56
2021/03/29 08:35:09;;;;;;;41.85;23.57;;;;;;;6.35;95.21;100977.35;1754768;79;21393;-56
2021/03/29 08:37:43;;;;;;;38.58;22.20;;;;;;;6.38;95.20;100983.98;1754518;80;21370;-56
2021/03/29 08:40:28;;;;;;;43.73;23.15;;;;;;;6.43;94.95;100987.04;1754341;80;20993;-56
2021/03/29 08:43:04;;;;;;;37.85;21.75;;;;;;;6.45;94.64;100979.00;1751672;80;21095;-55
2021/03/29 08:45:40;;;;;;;41.77;23.75;;;;;;;6.54;94.22;100981.53;1817026;76;22759;-56
2021/03/29 08:48:09;;;;;;;42.90;25.15;;;;;;;6.51;94.20;100986.49;1790575;77;20986;-57
2021/03/29 08:50:39;;;;;;;44.23;25.55;;;;;;;6.52;93.83;100980.67;1787560;77;21391;-55
2021/03/29 08:53:09;;;;;;;40.83;23.70;;;;;;;6.54;93.81;100989.11;1790277;77;21113;-56
2021/03/29 08:55:39;;;;;;;43.17;24.27;;;;;;;6.57;93.32;100988.20;1784924;77;20998;-57
2021/03/29 08:58:08;;;;;;;41.55;26.23;;;;;;;6.62;93.25;100982.33;1789802;77;21021;-58
2021/03/29 09:00:41;;;;;;;42.80;25.68;;;;;;;6.69;92.94;100988.47;1787409;77;21629;-57
2021/03/29 09:03:19;;;;;;;44.60;25.25;;;;;;;6.75;92.56;100994.62;1786178;79;21381;-56
2021/03/29 09:05:48;;;;;;;41.05;23.80;;;;;;;6.81;91.97;100998.55;1790887;79;21005;-56
2021/03/29 09:08:16;;;;;;;41.28;25.52;;;;;;;6.92;91.67;100998.84;1786099;79;21005;-56
2021/03/29 09:10:45;;;;;;;41.92;25.60;;;;;;;7.00;91.34;100996.95;1784065;79;21484;-57
2021/03/29 09:13:16;;;;;;;47.88;25.68;;;;;;;7.05;90.79;100995.97;1787461;77;21128;-55
2021/03/29 09:15:48;;;;;;;44.85;25.12;;;;;;;7.08;90.07;101001.72;1784923;77;21216;-56
2021/03/29 09:18:17;;;;;;;47.15;26.95;;;;;;;7.06;89.43;101002.21;1785857;77;21537;-56
2021/03/29 09:20:49;;;;;;;43.58;24.30;;;;;;;7.06;89.41;101005.78;1789414;77;21120;-56
2021/03/29 09:23:23;;;;;;;45.45;26.55;;;;;;;7.09;89.12;101011.11;1787363;79;20974;-56
2021/03/29 09:25:52;;;;;;;43.85;26.42;;;;;;;7.14;88.91;101012.80;1786521;77;20950;-56
2021/03/29 09:31:14;;;;;;;45.90;26.10;;;;;;;7.19;88.10;101027.95;1782078;77;21514;-56
2021/03/29 09:33:45;;;;;;;46.55;28.83;;;;;;;7.20;87.96;101028.38;1791025;77;20982;-56
2021/03/29 09:36:17;;;;;;;45.05;26.00;;;;;;;7.23;87.51;101026.97;1789771;79;21672;-56
2021/03/29 09:38:53;;;;;;;;;;;;;;;7.30;87.27;101022.41;1785326;79;20985;-55
2021/03/29 09:41:22;;;;;;;48.05;28.42;;;;;;;7.39;87.25;101026.72;1793510;79;22278;-56
2021/03/29 09:43:52;;;;;;;46.55;26.45;;;;;;;7.46;86.80;101020.36;1795635;77;21259;-55
2021/03/29 09:46:29;;;;;;;46.02;28.50;;;;;;;7.51;86.39;101026.50;1783094;77;20946;-56
2021/03/29 09:49:15;;;;;;;45.10;26.68;;;;;;;7.55;85.94;101020.17;1810381;76;23229;-56
2021/03/29 09:51:46;;;;;;;50.35;28.07;;;;;;;7.50;85.99;101027.42;1803706;77;21511;-56
2021/03/29 09:54:35;;;;;;;47.10;27.60;;;;;;;7.54;85.94;101022.44;1780449;77;21198;-56
2021/03/29 09:57:20;;;;;;;48.02;28.87;;;;;;;7.58;85.51;101022.82;1780681;78;20994;-56
2021/03/29 09:59:49;;;;;;;43.20;27.15;;;;;;;7.61;85.21;101018.27;1784468;78;21583;-56
2021/03/29 10:02:23;;;;;;;52.45;28.45;;;;;;;7.68;84.92;101035.17;1784432;79;21321;-56
2021/03/29 10:05:05;;;;;;;51.60;31.15;;;;;;;7.74;84.72;101026.12;1781613;78;20990;-56
2021/03/29 10:07:52;;;;;;;50.23;31.37;;;;;;;7.91;84.28;101024.45;1784382;78;22770;-56
2021/03/29 10:10:30;;;;;;;51.23;29.12;;;;;;;7.93;83.49;101029.33;1775651;79;20943;-56
2021/03/29 10:13:10;;;;;;;45.83;28.67;;;;;;;8.02;83.22;101026.02;1778184;79;21205;-56
2021/03/29 10:15:42;;;;;;;48.63;30.82;;;;;;;8.15;82.89;101036.09;1772399;79;21503;-57
2021/03/29 10:18:14;;;;;;;51.40;29.85;;;;;;;8.31;82.22;101029.48;1773571;79;21152;-59
2021/03/29 10:20:44;;;;;;;50.23;29.90;;;;;;;8.40;81.28;101034.69;1776483;79;20966;-57
2021/03/29 10:23:29;;;;;;;;;;;;;;;8.49;81.10;101032.73;1777861;79;21413;-56
2021/03/29 10:26:29;;;;;;;50.10;27.80;;;;;;;8.57;80.30;101030.75;1773636;79;21267;-57
2021/03/29 10:29:00;;;;;;;50.63;30.60;;;;;;;8.58;79.58;101038.81;1776002;79;21545;-57
2021/03/29 10:31:31;;;;;;;49.20;28.87;;;;;;;8.55;79.41;101043.36;1772965;79;21033;-55
2021/03/29 10:34:00;;;;;;;49.50;29.32;;;;;;;8.54;79.54;101047.86;1776702;79;21502;-54
2021/03/29 10:36:29;;;;;;;48.52;31.62;;;;;;;8.54;79.44;101045.62;1774854;79;21226;-55
2021/03/29 10:38:57;;;;;;;46.75;29.15;;;;;;;8.57;79.27;101044.20;1776106;79;21359;-53
2021/03/29 10:41:25;;;;;;;45.58;30.00;;;;;;;8.63;78.51;101048.13;1775576;79;21672;-52
2021/03/29 10:43:53;;;;;;;47.95;28.95;;;;;;;8.62;78.30;101042.30;1776867;79;21180;-55
2021/03/29 10:46:21;;;;;;;48.40;28.25;;;;;;;8.61;78.16;101048.60;1776647;79;21071;-54
2021/03/29 10:48:49;;;;;;;42.73;27.40;;;;;;;8.57;77.94;101041.52;1773215;79;21108;-55
2021/03/29 10:51:17;;;;;;;49.88;30.30;;;;;;;8.49;78.06;101046.19;1775017;79;21189;-55
2021/03/29 10:53:46;;;;;;;49.45;30.10;;;;;;;8.45;78.13;101039.09;1777451;79;21176;-57
2021/03/29 10:56:14;;;;;;;48.95;30.25;;;;;;;8.42;78.30;101052.61;1776943;79;21531;-62
2021/03/29 10:58:43;;;;;;;49.25;30.23;;;;;;;8.42;78.50;101045.44;1775576;79;21026;-55
2021/03/29 11:01:11;;;;;;;50.65;31.25;;;;;;;8.45;78.52;101041.78;1774633;79;21293;-55
2021/03/29 11:03:39;;;;;;;51.10;32.35;;;;;;;8.51;78.60;101038.95;1776258;79;21569;-55
2021/03/29 11:06:08;;;;;;;44.85;28.47;;;;;;;8.55;78.40;101037.98;1776533;79;21211;-55
2021/03/29 11:08:36;;;;;;;54.03;33.33;;;;;;;8.61;78.23;101042.76;1779881;79;21171;-57
2021/03/29 11:11:04;;;;;;;51.18;31.05;;;;;;;8.68;78.29;101054.27;1780604;79;21176;-55
2021/03/29 11:13:33;;;;;;;55.23;32.38;;;;;;;8.78;77.82;101041.51;1778896;79;21502;-57
2021/03/29 11:16:05;;;;;;;53.00;32.83;;;;;;;8.80;77.68;101043.72;1780303;79;21923;-59
2021/03/29 11:18:31;;;;;;;49.75;30.02;;;;;;;8.86;77.52;101049.84;1779195;79;21144;-58
2021/03/29 11:20:59;;;;;;;48.83;30.27;;;;;;;8.92;76.87;101047.01;1780399;79;21583;-59
2021/03/29 11:23:28;;;;;;;46.98;30.37;;;;;;;9.05;76.52;101054.79;1780178;79;21006;-60
2021/03/29 11:25:58;;;;;;;45.43;30.10;;;;;;;9.05;76.52;101054.79;1779184;79;21787;-58
2021/03/29 11:28:26;;;;;;;48.75;31.20;;;;;;;9.14;76.11;101049.20;1778766;79;21262;-57
2021/03/29 11:30:54;;;;;;;54.42;32.10;;;;;;;9.21;75.83;101054.86;1779595;79;21013;-56
2021/03/29 11:33:22;;;;;;;52.15;33.65;;;;;;;9.28;75.06;101049.77;1780676;79;21542;-59
2021/03/29 11:35:49;;;;;;;50.17;31.60;;;;;;;9.31;75.17;101049.67;1779443;79;20939;-60
2021/03/29 11:38:19;;;;;;;52.50;33.53;;;;;;;9.38;74.87;101040.55;1780156;79;21093;-59
2021/03/29 11:40:48;;;;;;;47.62;31.37;;;;;;;9.45;74.42;101040.81;1780220;79;21230;-59
2021/03/29 11:43:16;;;;;;;53.05;33.55;;;;;;;9.51;74.03;101048.31;1780133;79;22388;-59
2021/03/29 11:45:43;;;;;;;50.85;32.78;;;;;;;9.54;73.50;101050.95;1779884;79;21150;-60
2021/03/29 11:48:13;;;;;;;49.30;32.40;;;;;;;9.58;73.21;101055.30;1779537;80;21171;-60
2021/03/29 11:50:41;;;;;;;50.45;32.85;;;;;;;9.63;73.18;101052.03;1780323;79;21450;-63